Time;durP1;ratioP1;P1;durP2;ratioP2;P2;SDS_P1;SDS_P2;PMS_P1;PMS_P2;Temp;Humidity;BMP_temperature;BMP_pressure;BME280_temperature;BME280_humidity;BME280_pressure;Samples;Min_cycle;Max_cycle;Signal;HPM_P1;HPM_P2
2022/11/26 00:01:52;;;;;;;38.83;17.38;;;;;;;12.37;67.02;101842.56;4968927;28;99031;-70
2022/11/26 00:04:18;;;;;;;40.85;18.42;;;;;;;12.41;66.91;101856.59;4971787;28;97292;-70
2022/11/26 00:06:45;;;;;;;36.45;17.33;;;;;;;12.25;67.39;101851.72;4969111;28;96847;-69
2022/11/26 00:09:17;;;;;;;39.40;18.88;;;;;;;12.29;67.61;101857.78;4965775;28;98761;-70
2022/11/26 00:11:44;;;;;;;40.72;18.52;;;;;;;12.26;67.73;101853.47;4970542;28;98799;-70
2022/11/26 00:14:13;;;;;;;32.80;18.40;;;;;;;12.37;67.52;101851.41;4969275;28;98604;-70
2022/11/26 00:16:41;;;;;;;38.83;19.17;;;;;;;12.47;66.80;101861.78;4973085;28;96868;-70
2022/11/26 00:19:07;;;;;;;35.08;17.85;;;;;;;12.64;66.29;101860.41;4971988;28;100975;-71
2022/11/26 00:21:37;;;;;;;37.90;18.38;;;;;;;12.49;66.59;101860.81;4969884;28;98862;-69
2022/11/26 00:24:06;;;;;;;41.70;19.63;;;;;;;12.53;66.41;101866.91;4970218;28;97579;-70
2022/11/26 00:26:33;;;;;;;45.45;19.20;;;;;;;12.35;67.30;101868.22;4970906;28;97512;-70
2022/11/26 00:29:00;;;;;;;40.97;18.30;;;;;;;12.17;67.53;101872.22;4965049;28;99001;-71
2022/11/26 00:31:28;;;;;;;43.28;19.60;;;;;;;12.28;67.22;101872.81;4968496;28;98840;-70
2022/11/26 00:33:56;;;;;;;48.50;19.42;;;;;;;12.35;67.59;101871.75;4968353;28;96771;-70
2022/11/26 00:36:25;;;;;;;38.25;19.52;;;;;;;12.31;67.02;101875.41;4969469;28;97272;-70
2022/11/26 00:38:54;;;;;;;43.33;19.55;;;;;;;12.35;67.00;101863.81;4970122;28;101085;-71
2022/11/26 00:41:23;;;;;;;41.95;18.83;;;;;;;12.28;67.40;101878.13;4967353;28;99042;-70
2022/11/26 00:43:50;;;;;;;44.03;18.63;;;;;;;12.14;67.76;101877.56;4966817;28;97185;-70
2022/11/26 00:46:19;;;;;;;41.13;18.45;;;;;;;12.34;67.10;101879.75;4969377;28;97462;-70
2022/11/26 00:48:48;;;;;;;44.65;19.75;;;;;;;12.34;67.54;101890.34;4969478;28;98861;-70
2022/11/26 00:51:19;;;;;;;42.40;17.45;;;;;;;12.30;66.97;101886.91;4967698;28;100130;-70
2022/11/26 00:53:47;;;;;;;41.20;19.42;;;;;;;12.47;66.67;101882.97;4967406;28;97101;-70
2022/11/26 00:56:16;;;;;;;48.00;19.48;;;;;;;12.34;66.91;101885.03;4971986;28;98879;-69
2022/11/26 00:58:43;;;;;;;40.10;17.55;;;;;;;12.34;67.14;101893.88;4968317;28;101542;-70
2022/11/26 01:01:12;;;;;;;42.22;19.17;;;;;;;12.29;67.34;101892.25;4968437;28;98947;-70
2022/11/26 01:03:41;;;;;;;44.22;19.30;;;;;;;12.26;67.10;101895.84;4969694;28;96750;-70
2022/11/26 01:06:14;;;;;;;39.20;18.58;;;;;;;12.32;67.14;101900.13;4969696;28;96980;-71
2022/11/26 01:08:42;;;;;;;45.55;19.52;;;;;;;12.27;67.29;101899.38;4970473;28;98992;-71
2022/11/26 01:11:13;;;;;;;44.42;19.98;;;;;;;12.24;67.12;101918.88;4969558;28;98764;-71
2022/11/26 01:13:42;;;;;;;47.40;19.50;;;;;;;12.24;67.52;101910.91;4969333;28;97105;-70
2022/11/26 01:16:19;;;;;;;48.90;18.75;;;;;;;12.31;67.21;101915.16;4966475;28;97330;-71
2022/11/26 01:18:45;;;;;;;44.17;18.50;;;;;;;12.33;67.11;101917.78;4967429;28;98852;-70
2022/11/26 01:21:12;;;;;;;44.03;18.38;;;;;;;12.32;67.12;101921.34;4971190;28;98813;-69
2022/11/26 01:23:39;;;;;;;43.70;18.42;;;;;;;12.38;66.95;101918.53;4967682;28;96975;-71
2022/11/26 01:26:10;;;;;;;40.05;19.45;;;;;;;12.42;67.11;101922.84;4968831;28;96975;-71
2022/11/26 01:28:36;;;;;;;45.75;18.63;;;;;;;12.10;67.89;101922.75;4974850;28;98915;-69
2022/11/26 01:31:03;;;;;;;45.50;19.25;;;;;;;12.23;67.80;101933.00;4971419;28;98848;-70
2022/11/26 01:33:29;;;;;;;44.58;18.48;;;;;;;12.12;68.00;101936.84;4969234;28;96854;-70
2022/11/26 01:35:56;;;;;;;44.60;18.85;;;;;;;12.01;68.33;101942.38;4968709;28;97132;-69
2022/11/26 01:38:22;;;;;;;42.22;18.92;;;;;;;12.19;68.22;101936.66;4970660;28;99297;-70
2022/11/26 01:41:09;;;;;;;43.17;18.55;;;;;;;12.25;68.00;101947.13;4969031;28;100749;-71
2022/11/26 01:43:41;;;;;;;45.30;19.55;;;;;;;12.21;68.10;101944.53;4970341;28;96896;-69
2022/11/26 01:46:14;;;;;;;45.25;20.05;;;;;;;12.33;67.55;101938.97;4967829;28;96793;-70
2022/11/26 01:48:40;;;;;;;50.97;19.55;;;;;;;12.27;67.61;101944.44;4969016;28;99322;-70
2022/11/26 01:51:08;;;;;;;52.28;20.65;;;;;;;12.52;66.80;101944.72;4968089;28;99238;-69
2022/11/26 01:53:44;;;;;;;55.60;20.02;;;;;;;12.46;67.49;101939.56;4970683;28;98568;-71
2022/11/26 01:56:18;;;;;;;61.47;21.15;;;;;;;12.38;67.57;101943.25;4965272;28;96964;-69
2022/11/26 01:58:49;;;;;;;48.10;19.60;;;;;;;12.45;67.18;101951.06;4969317;28;98910;-71
2022/11/26 02:01:16;;;;;;;57.42;19.90;;;;;;;12.38;67.36;101948.56;4968975;28;99611;-70
2022/11/26 02:03:49;;;;;;;65.68;21.60;;;;;;;12.47;67.44;101942.16;4968065;28;96792;-70
2022/11/26 02:06:22;;;;;;;57.20;20.48;;;;;;;12.66;67.01;101946.13;4970532;28;97013;-70
2022/11/26 02:08:48;;;;;;;56.67;20.65;;;;;;;12.52;67.31;101955.31;4963205;28;97618;-70
2022/11/26 02:11:18;;;;;;;71.97;20.73;;;;;;;12.42;67.49;101956.44;4967582;28;98839;-70
2022/11/26 02:13:49;;;;;;;66.20;21.50;;;;;;;12.49;67.50;101961.53;4969727;28;97403;-71
2022/11/26 02:16:24;;;;;;;62.42;21.23;;;;;;;12.62;67.21;101956.81;4969686;28;96738;-70
2022/11/26 02:19:04;;;;;;;57.28;20.65;;;;;;;12.41;67.63;101962.63;4965949;28;99182;-70
2022/11/26 02:21:34;;;;;;;60.63;19.75;;;;;;;12.56;67.47;101972.88;4965804;28;98769;-70
2022/11/26 02:24:31;;;;;;;60.17;21.98;;;;;;;12.53;67.56;101979.16;4967851;28;97360;-72
2022/11/26 02:27:21;;;;;;;60.63;20.88;;;;;;;12.56;67.43;101987.00;4970612;28;97130;-70
2022/11/26 02:30:02;;;;;;;56.05;20.88;;;;;;;12.54;67.55;101986.16;4966943;28;98942;-70
2022/11/26 02:32:34;;;;;;;57.55;21.63;;;;;;;12.58;67.43;101986.97;4971110;28;99098;-71
2022/11/26 02:35:06;;;;;;;46.92;18.98;;;;;;;12.48;67.65;101990.75;4971904;28;96920;-70
2022/11/26 02:37:37;;;;;;;56.55;21.48;;;;;;;12.49;67.94;101989.84;4971093;28;97357;-71
2022/11/26 02:40:05;;;;;;;63.80;20.70;;;;;;;12.55;67.83;101997.63;4971019;28;98741;-70
2022/11/26 02:42:34;;;;;;;62.63;21.73;;;;;;;12.42;68.04;101994.41;4971931;28;98882;-71
2022/11/26 02:45:08;;;;;;;66.30;21.95;;;;;;;12.13;69.15;101995.09;4973639;28;98242;-70
2022/11/26 02:47:36;;;;;;;58.95;22.17;;;;;;;12.30;68.90;101998.22;4970857;28;97122;-70
2022/11/26 02:50:08;;;;;;;66.00;23.67;;;;;;;12.36;68.60;101998.09;4973165;28;100195;-71
2022/11/26 02:52:35;;;;;;;71.57;24.70;;;;;;;12.29;68.74;102004.44;4968945;28;99142;-70
2022/11/26 02:55:06;;;;;;;63.67;24.63;;;;;;;12.54;67.95;102001.19;4978855;28;96859;-71
2022/11/26 02:57:37;;;;;;;70.13;26.38;;;;;;;12.32;68.72;101996.41;4967350;28;96876;-70
2022/11/26 03:00:07;;;;;;;76.85;26.95;;;;;;;12.37;68.59;101999.84;4972198;28;99053;-70
2022/11/26 03:02:40;;;;;;;69.65;25.85;;;;;;;12.46;68.21;101998.75;4973028;28;98885;-69
2022/11/26 03:05:08;;;;;;;67.15;25.95;;;;;;;12.54;68.02;102001.19;4971124;28;97550;-69
2022/11/26 03:07:36;;;;;;;67.55;24.85;;;;;;;12.58;67.94;101993.16;4973830;28;97411;-70
2022/11/26 03:10:04;;;;;;;72.57;26.30;;;;;;;12.54;68.23;101996.78;4969804;28;101317;-70
2022/11/26 03:12:38;;;;;;;62.15;25.33;;;;;;;12.61;67.82;101997.50;4970079;28;99397;-70
2022/11/26 03:15:06;;;;;;;68.68;26.58;;;;;;;12.63;67.49;101996.56;4967466;28;97397;-71
2022/11/26 03:17:33;;;;;;;61.70;26.02;;;;;;;12.15;69.41;102003.84;4970535;28;96813;-71
2022/11/26 03:19:59;;;;;;;61.00;24.65;;;;;;;11.87;70.74;102011.56;4971229;28;99272;-71
2022/11/26 03:22:26;;;;;;;62.28;24.65;;;;;;;12.06;70.01;102017.31;4969614;28;97901;-71
2022/11/26 03:24:52;;;;;;;61.85;26.15;;;;;;;12.12;69.96;102011.91;4971306;28;97845;-70
2022/11/26 03:27:18;;;;;;;57.88;24.35;;;;;;;11.98;70.66;102019.25;4976133;28;96861;-71
2022/11/26 03:29:45;;;;;;;58.85;24.52;;;;;;;11.96;70.89;102023.72;4972037;28;99054;-70
2022/11/26 03:32:12;;;;;;;66.10;24.42;;;;;;;11.89;70.52;102019.44;4971167;28;98130;-70
2022/11/26 03:34:39;;;;;;;62.75;26.55;;;;;;;12.11;69.91;102019.88;4970761;28;97304;-70
2022/11/26 03:37:06;;;;;;;72.38;28.52;;;;;;;12.20;69.50;102031.16;4970898;28;96996;-70
2022/11/26 03:39:32;;;;;;;73.43;27.85;;;;;;;12.27;69.37;102030.06;4970534;28;99528;-70
2022/11/26 03:41:58;;;;;;;66.00;27.55;;;;;;;12.62;68.48;102031.06;4974284;28;98903;-69
2022/11/26 03:44:24;;;;;;;71.00;27.05;;;;;;;12.62;68.24;102031.94;4967296;28;96906;-70
2022/11/26 03:46:51;;;;;;;68.25;26.40;;;;;;;12.54;68.54;102028.59;4972701;28;97743;-71
2022/11/26 03:49:19;;;;;;;76.03;27.50;;;;;;;12.58;68.43;102034.72;4966502;28;98963;-70
2022/11/26 03:51:45;;;;;;;68.03;27.90;;;;;;;12.47;68.98;102034.94;4970770;28;99705;-70
2022/11/26 03:54:12;;;;;;;83.22;29.48;;;;;;;12.28;69.81;102036.25;4970559;28;96804;-70
2022/11/26 03:56:38;;;;;;;87.85;28.67;;;;;;;12.30;69.81;102048.59;4970803;28;96946;-71
2022/11/26 03:59:05;;;;;;;80.95;29.50;;;;;;;12.17;70.17;102047.09;4970095;28;99275;-71
2022/11/26 04:01:31;;;;;;;72.75;28.38;;;;;;;12.42;69.90;102049.22;4970651;28;97797;-71
2022/11/26 04:03:58;;;;;;;80.20;28.30;;;;;;;12.44;69.34;102050.06;4968168;28;97629;-71
2022/11/26 04:06:25;;;;;;;75.05;28.20;;;;;;;12.25;69.71;102061.06;4972104;28;96991;-70
2022/11/26 04:08:52;;;;;;;77.75;27.23;;;;;;;12.36;69.52;102060.81;4969170;28;100503;-70
2022/11/26 04:11:18;;;;;;;81.25;29.52;;;;;;;12.35;69.74;102057.28;4972662;28;98702;-71
2022/11/26 04:13:44;;;;;;;71.78;27.38;;;;;;;12.53;68.98;102066.63;4969845;28;96891;-70
2022/11/26 04:16:11;;;;;;;76.78;27.33;;;;;;;12.59;68.79;102069.16;4973476;28;97520;-70
2022/11/26 04:18:37;;;;;;;88.40;27.65;;;;;;;12.65;68.58;102068.13;4969710;28;98968;-70
2022/11/26 04:21:05;;;;;;;76.25;27.83;;;;;;;12.59;68.84;102068.28;4970636;28;98851;-70
2022/11/26 04:23:33;;;;;;;72.53;28.30;;;;;;;12.42;69.16;102081.00;4968600;28;96941;-69
2022/11/26 04:25:59;;;;;;;72.20;26.40;;;;;;;12.52;69.11;102078.16;4967708;28;97363;-70
2022/11/26 04:28:26;;;;;;;63.90;25.75;;;;;;;12.83;68.14;102083.59;4971219;28;98931;-70
2022/11/26 04:30:52;;;;;;;66.82;26.55;;;;;;;12.78;68.02;102089.03;4970537;28;98791;-70
2022/11/26 04:33:19;;;;;;;70.97;26.05;;;;;;;12.53;68.92;102090.50;4968049;28;96965;-70
2022/11/26 04:35:45;;;;;;;68.72;26.85;;;;;;;11.96;71.50;102092.56;4969947;28;97229;-70
2022/11/26 04:38:11;;;;;;;70.63;25.80;;;;;;;12.04;71.76;102092.44;4967885;28;99359;-70
2022/11/26 04:40:39;;;;;;;63.22;25.70;;;;;;;12.24;70.74;102099.06;4965927;28;98767;-70
2022/11/26 04:43:06;;;;;;;66.40;26.15;;;;;;;12.31;70.43;102110.41;4970440;28;96903;-69
2022/11/26 04:45:32;;;;;;;67.85;25.83;;;;;;;12.02;71.15;102103.06;4968907;28;96881;-69
2022/11/26 04:47:58;;;;;;;62.92;26.13;;;;;;;12.23;70.73;102107.91;4969771;28;99209;-70
2022/11/26 04:50:25;;;;;;;68.28;25.48;;;;;;;12.27;70.33;102114.88;4970131;28;97660;-70
2022/11/26 04:52:51;;;;;;;64.57;26.08;;;;;;;12.36;70.05;102114.72;4968704;28;96796;-71
2022/11/26 04:55:18;;;;;;;63.35;26.25;;;;;;;12.33;70.22;102111.25;4969898;28;97101;-70
2022/11/26 04:57:47;;;;;;;76.80;28.80;;;;;;;12.44;69.71;102122.50;4969967;28;99046;-70
2022/11/26 05:00:15;;;;;;;60.45;24.98;;;;;;;12.53;69.17;102119.66;4970668;28;98860;-71
2022/11/26 05:02:42;;;;;;;71.20;25.08;;;;;;;12.35;69.91;102120.91;4970245;28;96723;-70
2022/11/26 05:05:08;;;;;;;60.00;23.98;;;;;;;12.33;70.04;102125.41;4963976;28;96955;-72
2022/11/26 05:07:35;;;;;;;62.40;23.92;;;;;;;12.09;70.83;102130.28;4969027;28;99134;-69
2022/11/26 05:10:02;;;;;;;63.50;23.35;;;;;;;12.06;71.09;102138.31;4973945;28;99070;-69
2022/11/26 05:12:28;;;;;;;54.10;22.02;;;;;;;12.28;70.05;102132.53;4971918;28;97534;-69
2022/11/26 05:14:56;;;;;;;50.75;22.08;;;;;;;12.24;70.31;102140.59;4969554;28;96880;-70
2022/11/26 05:17:22;;;;;;;49.80;20.65;;;;;;;11.76;70.83;102140.63;4970396;28;99504;-70
2022/11/26 05:19:48;;;;;;;48.40;21.42;;;;;;;11.78;71.85;102151.22;4975366;28;98853;-69
2022/11/26 05:22:15;;;;;;;47.50;20.30;;;;;;;12.01;70.93;102154.31;4965250;28;98640;-69
2022/11/26 05:24:41;;;;;;;42.80;20.95;;;;;;;12.18;70.27;102154.84;4970988;28;98633;-70
2022/11/26 05:27:07;;;;;;;45.65;20.58;;;;;;;12.16;69.99;102159.28;4969064;28;99037;-70
2022/11/26 05:29:34;;;;;;;50.10;21.00;;;;;;;12.26;69.51;102160.88;4971649;28;98931;-70
2022/11/26 05:32:02;;;;;;;48.25;19.63;;;;;;;12.23;69.51;102162.69;4970129;28;98668;-70
2022/11/26 05:34:28;;;;;;;38.70;18.55;;;;;;;12.32;69.19;102160.75;4969762;28;97064;-72
2022/11/26 05:36:54;;;;;;;45.70;19.38;;;;;;;12.07;69.99;102171.88;4970528;28;99002;-69
2022/11/26 05:39:21;;;;;;;41.28;18.83;;;;;;;12.34;69.38;102174.81;4972750;28;99517;-69
2022/11/26 05:41:48;;;;;;;41.58;19.23;;;;;;;12.27;69.20;102175.84;4971054;28;96847;-70
2022/11/26 05:44:14;;;;;;;38.83;18.55;;;;;;;12.57;68.18;102177.00;4973611;28;96853;-69
2022/11/26 05:46:42;;;;;;;39.28;17.90;;;;;;;12.36;68.36;102186.28;4969966;28;98836;-70
2022/11/26 05:49:10;;;;;;;42.50;17.48;;;;;;;12.06;69.61;102183.34;4969472;28;98860;-70
2022/11/26 05:51:36;;;;;;;38.97;16.48;;;;;;;12.18;69.04;102188.44;4969760;28;96762;-70
2022/11/26 05:54:03;;;;;;;42.70;17.65;;;;;;;12.23;68.64;102181.25;4968310;28;97253;-69
2022/11/26 05:56:29;;;;;;;41.80;17.13;;;;;;;12.23;68.94;102190.06;4968915;28;99526;-70
2022/11/26 05:58:56;;;;;;;40.45;17.25;;;;;;;12.13;69.27;102185.88;4964593;28;98984;-69
2022/11/26 06:01:22;;;;;;;41.40;16.85;;;;;;;12.18;69.13;102189.31;4967124;28;97293;-70
2022/11/26 06:03:49;;;;;;;44.22;17.08;;;;;;;12.05;69.29;102198.38;4970012;28;97008;-70
2022/11/26 06:06:16;;;;;;;35.78;16.52;;;;;;;11.66;70.81;102199.94;4968270;28;99054;-70
2022/11/26 06:08:43;;;;;;;40.33;16.23;;;;;;;11.98;69.87;102202.03;4973604;28;99217;-70
2022/11/26 06:11:11;;;;;;;41.15;16.67;;;;;;;11.83;70.45;102203.19;4970171;28;96750;-72
2022/11/26 06:13:37;;;;;;;38.47;16.02;;;;;;;12.02;70.17;102209.03;4971848;28;97656;-69
2022/11/26 06:16:04;;;;;;;44.00;15.95;;;;;;;11.83;70.41;102212.91;4972715;28;98921;-69
2022/11/26 06:18:30;;;;;;;37.40;15.40;;;;;;;12.14;69.50;102216.75;4972332;28;98831;-70
2022/11/26 06:20:59;;;;;;;33.30;15.43;;;;;;;12.29;68.76;102221.75;4970829;28;98663;-70
2022/11/26 06:23:27;;;;;;;41.30;15.68;;;;;;;12.56;67.71;102217.69;4968917;28;98578;-72
2022/11/26 06:25:54;;;;;;;40.30;15.57;;;;;;;12.48;67.95;102224.91;4972588;28;99174;-69
2022/11/26 06:28:20;;;;;;;41.60;15.77;;;;;;;12.51;67.92;102234.59;4970587;28;100126;-71
2022/11/26 06:30:47;;;;;;;51.65;16.77;;;;;;;12.38;68.42;102234.84;4973995;28;97136;-70
2022/11/26 06:33:13;;;;;;;39.40;15.20;;;;;;;12.29;69.10;102250.03;4973336;28;96926;-71
2022/11/26 06:35:39;;;;;;;40.90;15.45;;;;;;;12.15;69.57;102247.63;4968565;28;99007;-69
2022/11/26 06:38:06;;;;;;;37.90;14.68;;;;;;;12.35;69.22;102249.91;4970202;28;99286;-70
2022/11/26 06:40:33;;;;;;;39.83;15.00;;;;;;;12.51;68.55;102255.81;4971467;28;97196;-69
2022/11/26 06:43:00;;;;;;;39.40;14.73;;;;;;;12.54;67.90;102251.31;4972474;28;96856;-70
2022/11/26 06:45:26;;;;;;;44.50;15.48;;;;;;;12.38;68.79;102253.41;4972558;28;99017;-72
2022/11/26 06:47:53;;;;;;;35.90;15.70;;;;;;;12.38;68.62;102258.72;4967506;28;100986;-71
2022/11/26 06:50:21;;;;;;;33.22;13.90;;;;;;;12.38;68.30;102266.66;4973217;28;96872;-70
2022/11/26 06:52:50;;;;;;;36.47;14.73;;;;;;;12.28;69.23;102265.06;4968289;28;97850;-70
2022/11/26 06:55:17;;;;;;;35.33;13.20;;;;;;;12.31;68.57;102269.44;4970522;28;99014;-71
2022/11/26 06:57:45;;;;;;;37.85;14.60;;;;;;;12.31;68.94;102277.41;4970703;28;99146;-72
2022/11/26 07:00:12;;;;;;;37.42;14.52;;;;;;;12.21;69.20;102279.31;4974632;28;96990;-70
2022/11/26 07:02:39;;;;;;;35.35;14.68;;;;;;;12.29;69.06;102281.84;4970497;28;97030;-71
2022/11/26 07:05:05;;;;;;;38.13;14.20;;;;;;;12.12;69.87;102289.22;4967545;28;101066;-70
2022/11/26 07:07:31;;;;;;;44.10;13.90;;;;;;;12.32;68.93;102293.28;4967644;28;99254;-70
2022/11/26 07:09:58;;;;;;;42.33;13.90;;;;;;;11.65;71.55;102303.22;4970799;28;97440;-70
2022/11/26 07:12:24;;;;;;;42.53;14.30;;;;;;;11.99;70.29;102296.53;4972932;28;96826;-76
2022/11/26 07:14:52;;;;;;;32.78;13.98;;;;;;;11.95;70.52;102305.41;4972742;28;99247;-71
2022/11/26 07:17:18;;;;;;;35.88;12.93;;;;;;;12.06;69.87;102302.59;4968036;28;99408;-70
2022/11/26 07:19:44;;;;;;;52.28;14.73;;;;;;;12.32;68.79;102301.22;4969071;28;97037;-70
2022/11/26 07:22:11;;;;;;;38.25;14.45;;;;;;;12.47;68.27;102301.84;4968070;28;97694;-69
2022/11/26 07:24:37;;;;;;;33.28;13.25;;;;;;;12.48;68.11;102309.75;4964089;28;98891;-68
2022/11/26 07:27:04;;;;;;;33.42;12.73;;;;;;;12.26;68.72;102308.41;4967068;28;99977;-70
2022/11/26 07:29:30;;;;;;;44.42;13.60;;;;;;;12.01;69.85;102301.78;4962061;28;97023;-70
2022/11/26 07:31:58;;;;;;;35.83;13.55;;;;;;;12.14;69.95;102313.94;4968446;28;98527;-71
2022/11/26 07:34:24;;;;;;;35.38;12.50;;;;;;;12.37;68.93;102312.63;4967333;28;98991;-71
2022/11/26 07:36:50;;;;;;;31.55;12.75;;;;;;;12.66;67.97;102313.88;4969537;28;98728;-73
2022/11/26 07:39:17;;;;;;;46.83;13.98;;;;;;;12.61;67.41;102313.06;4968396;28;96871;-71
2022/11/26 07:41:43;;;;;;;37.72;12.90;;;;;;;12.88;66.86;102315.16;4971344;28;96842;-70
2022/11/26 07:44:12;;;;;;;41.50;13.23;;;;;;;12.89;66.59;102327.53;4969646;28;99373;-70
2022/11/26 07:46:39;;;;;;;41.53;12.95;;;;;;;12.86;66.33;102322.31;4967646;28;99541;-70
2022/11/26 07:49:07;;;;;;;34.47;12.27;;;;;;;12.58;66.85;102327.25;4964698;28;98608;-70
2022/11/26 07:51:35;;;;;;;32.95;11.90;;;;;;;12.85;66.52;102328.50;4966240;28;96934;-70
2022/11/26 07:54:07;;;;;;;42.70;13.07;;;;;;;12.79;66.19;102333.94;4966956;28;99423;-70
2022/11/26 07:56:36;;;;;;;41.70;12.13;;;;;;;12.92;66.15;102334.56;4969682;28;100498;-70
2022/11/26 07:59:07;;;;;;;26.42;11.68;;;;;;;12.74;66.36;102334.00;4968427;28;98781;-70
2022/11/26 08:01:36;;;;;;;39.83;12.55;;;;;;;12.86;66.14;102340.88;4967815;28;96895;-70
2022/11/26 08:04:05;;;;;;;31.02;11.77;;;;;;;12.86;66.17;102337.34;4964410;28;99066;-71
2022/11/26 08:06:33;;;;;;;34.10;12.15;;;;;;;12.74;66.31;102341.97;4965285;28;98933;-69
2022/11/26 08:09:01;;;;;;;36.55;11.27;;;;;;;12.89;65.72;102343.44;4971165;28;97691;-69
2022/11/26 08:11:30;;;;;;;33.65;10.65;;;;;;;12.59;66.38;102350.22;4973606;28;100436;-71
2022/11/26 08:13:59;;;;;;;34.17;10.63;;;;;;;12.92;65.91;102354.00;4969969;28;99268;-70
2022/11/26 08:16:25;;;;;;;33.53;11.30;;;;;;;12.87;65.62;102354.97;4970647;28;99009;-66
2022/11/26 08:18:53;;;;;;;33.30;11.13;;;;;;;12.94;65.24;102357.50;4966575;28;96909;-65
2022/11/26 08:21:19;;;;;;;39.53;11.85;;;;;;;12.98;65.13;102361.84;4967118;28;97209;-66
2022/11/26 08:23:47;;;;;;;39.65;9.82;;;;;;;12.40;66.54;102369.16;4969982;28;98994;-68
2022/11/26 08:26:15;;;;;;;33.65;10.98;;;;;;;12.45;66.32;102375.22;4960054;28;98857;-65
2022/11/26 08:28:42;;;;;;;36.40;10.48;;;;;;;12.52;66.45;102369.81;4968296;28;96981;-66
2022/11/26 08:31:10;;;;;;;38.05;10.30;;;;;;;12.43;66.74;102374.38;4966795;28;96970;-65
2022/11/26 08:33:37;;;;;;;34.90;10.65;;;;;;;12.68;66.06;102376.56;4967527;28;98388;-65
2022/11/26 08:36:05;;;;;;;40.10;9.93;;;;;;;12.50;66.35;102376.03;4969105;28;98781;-67
2022/11/26 08:38:31;;;;;;;34.78;9.95;;;;;;;12.60;66.63;102375.81;4971805;28;96819;-67
2022/11/26 08:41:01;;;;;;;42.58;10.93;;;;;;;12.98;65.09;102375.13;4972349;28;97186;-65
2022/11/26 08:43:27;;;;;;;33.80;10.82;;;;;;;13.28;63.89;102389.56;4954415;28;99245;-66
2022/11/26 08:45:55;;;;;;;31.60;9.90;;;;;;;13.25;63.77;102388.78;4966584;28;99090;-66
2022/11/26 08:48:25;;;;;;;29.40;9.48;;;;;;;13.33;63.60;102389.47;4965020;28;98735;-67
2022/11/26 08:50:56;;;;;;;32.97;9.10;;;;;;;13.25;63.27;102394.97;4966489;28;96761;-68
2022/11/26 08:53:23;;;;;;;25.65;9.10;;;;;;;13.31;62.65;102393.97;4969766;28;98966;-65
2022/11/26 08:55:49;;;;;;;37.47;10.88;;;;;;;13.25;62.68;102400.28;4971421;28;98829;-66
2022/11/26 08:58:17;;;;;;;29.65;8.65;;;;;;;13.12;63.68;102401.38;4969659;28;97128;-65
2022/11/26 09:00:43;;;;;;;37.25;9.57;;;;;;;13.24;62.97;102405.59;4969568;28;97993;-66
2022/11/26 09:03:40;;;;;;;35.25;9.50;;;;;;;13.25;63.33;102410.00;4969987;28;99302;-67
2022/11/26 09:06:08;;;;;;;29.80;8.10;;;;;;;13.23;62.62;102414.47;4972034;28;97642;-67
2022/11/26 09:09:11;;;;;;;32.65;8.18;;;;;;;13.11;62.79;102419.09;4972043;28;96758;-65
2022/11/26 09:11:23;;;;;;;33.65;8.27;;;;;;;13.12;62.51;102422.63;4964816;28;97113;-67
2022/11/26 09:13:50;;;;;;;23.83;7.97;;;;;;;13.06;63.17;102428.06;4971842;28;99155;-66
2022/11/26 09:16:17;;;;;;;29.23;8.43;;;;;;;13.12;63.37;102427.94;4970271;28;97660;-68
2022/11/26 09:18:49;;;;;;;35.90;8.43;;;;;;;12.85;63.94;102431.97;4969290;28;97684;-66
2022/11/26 09:21:15;;;;;;;28.00;7.68;;;;;;;12.44;65.13;102434.47;4958104;28;97810;-66
2022/11/26 09:23:54;;;;;;;27.92;8.52;;;;;;;12.82;64.59;102433.78;4968082;28;98510;-67
2022/11/26 09:26:20;;;;;;;31.40;8.95;;;;;;;12.65;65.06;102442.94;4960355;28;98222;-67
2022/11/26 09:28:47;;;;;;;30.67;8.70;;;;;;;12.98;64.30;102440.59;4969479;28;97351;-67
2022/11/26 09:31:15;;;;;;;21.35;6.43;;;;;;;12.93;63.40;102437.16;4974229;28;97013;-68
2022/11/26 09:33:42;;;;;;;24.98;7.63;;;;;;;13.04;63.07;102444.00;4964499;28;100890;-65
2022/11/26 09:36:10;;;;;;;25.92;6.68;;;;;;;12.65;63.38;102450.91;4969210;28;99232;-67
2022/11/26 09:38:44;;;;;;;21.75;6.90;;;;;;;12.52;64.38;102456.44;4970390;28;97207;-66
2022/11/26 09:41:22;;;;;;;27.90;7.72;;;;;;;12.75;63.69;102455.13;4977026;28;97014;-72
2022/11/26 09:44:06;;;;;;;26.30;6.68;;;;;;;12.79;64.04;102455.97;4961201;28;100117;-72
2022/11/26 09:46:49;;;;;;;23.02;6.95;;;;;;;13.13;62.79;102459.75;4967983;28;100703;-70
2022/11/26 09:49:17;;;;;;;23.63;7.20;;;;;;;13.24;61.90;102454.25;4968630;28;97697;-70
2022/11/26 09:51:55;;;;;;;40.35;7.28;;;;;;;12.73;63.37;102467.53;4971243;28;97394;-70
2022/11/26 09:54:23;;;;;;;17.38;6.28;;;;;;;12.68;63.95;102472.03;4971429;28;99302;-71
2022/11/26 09:56:57;;;;;;;21.38;6.72;;;;;;;12.80;63.19;102462.16;4968100;28;99272;-71
2022/11/26 09:59:29;;;;;;;18.85;6.15;;;;;;;12.98;62.61;102470.66;4969891;28;96926;-71
2022/11/26 10:02:02;;;;;;;22.92;6.80;;;;;;;13.09;61.93;102481.94;4964765;28;97677;-70
2022/11/26 10:04:32;;;;;;;32.95;6.28;;;;;;;13.33;61.25;102477.06;4962732;28;98955;-70
2022/11/26 10:07:05;;;;;;;20.20;5.80;;;;;;;12.91;61.94;102487.56;4968022;28;99379;-70
2022/11/26 10:10:06;;;;;;;;;;;;;;;;;;;;;
2022/11/26 10:12:47;;;;;;;27.05;5.82;;;;;;;12.64;63.19;102485.38;4955630;28;116646;-71
2022/11/26 10:15:17;;;;;;;23.80;5.57;;;;;;;12.98;61.83;102478.59;4966773;28;98983;-70
2022/11/26 10:20:50;;;;;;;20.02;6.25;;;;;;;12.95;61.80;102480.44;4931929;28;98820;-70
2022/11/26 10:23:27;;;;;;;19.23;5.68;;;;;;;13.02;61.83;102477.63;4960835;28;98233;-73
2022/11/26 10:25:58;;;;;;;26.45;5.50;;;;;;;13.10;61.67;102481.03;4961114;28;99192;-74
2022/11/26 10:28:35;;;;;;;21.55;5.97;;;;;;;13.04;62.07;102480.28;4961984;28;99034;-70
2022/11/26 10:31:08;;;;;;;27.75;6.47;;;;;;;13.08;62.41;102487.25;4962163;28;96980;-70
2022/11/26 10:33:41;;;;;;;21.92;5.55;;;;;;;13.19;61.66;102489.78;4967319;28;98626;-71
2022/11/26 10:36:20;;;;;;;19.70;5.72;;;;;;;12.87;62.75;102488.50;4967499;28;99105;-70
2022/11/26 10:38:46;;;;;;;24.13;6.18;;;;;;;12.67;63.59;102495.94;4961416;28;99060;-70
2022/11/26 10:41:15;;;;;;;23.45;5.40;;;;;;;12.78;63.79;102496.66;4970412;28;97348;-70
2022/11/26 10:43:41;;;;;;;24.50;5.80;;;;;;;12.75;64.08;102494.03;4962078;28;98822;-70
2022/11/26 10:46:08;;;;;;;25.65;5.70;;;;;;;12.95;63.65;102505.19;4961381;28;100847;-70
2022/11/26 10:48:37;;;;;;;23.98;6.97;;;;;;;12.97;63.49;102511.34;4966600;28;99023;-71
2022/11/26 10:51:08;;;;;;;25.75;6.95;;;;;;;13.19;63.01;102511.00;4968386;28;97078;-70
2022/11/26 10:53:54;;;;;;;29.65;8.30;;;;;;;13.43;62.52;102510.53;4960782;28;98684;-70
2022/11/26 10:56:23;;;;;;;30.15;7.07;;;;;;;13.56;61.82;102507.59;4962301;28;99033;-70
2022/11/26 10:58:52;;;;;;;18.65;6.05;;;;;;;13.51;61.52;102514.78;4963040;28;100362;-71
2022/11/26 11:01:29;;;;;;;21.80;6.15;;;;;;;13.17;62.60;102524.28;4965008;28;97391;-70
2022/11/26 11:03:58;;;;;;;31.17;6.47;;;;;;;13.00;63.31;102523.66;4966778;28;99636;-71
2022/11/26 11:06:37;;;;;;;25.70;6.25;;;;;;;13.15;62.68;102521.66;4962207;28;99721;-72
2022/11/26 11:09:23;;;;;;;25.23;5.60;;;;;;;13.36;61.78;102517.75;4964840;28;99078;-72
2022/11/26 11:12:07;;;;;;;;;;;;;;;13.36;61.76;102514.22;4964410;28;98893;-71
2022/11/26 11:14:34;;;;;;;19.48;5.05;;;;;;;13.44;61.50;102520.25;4963919;28;97755;-71
2022/11/26 11:17:00;;;;;;;23.42;5.72;;;;;;;13.38;61.29;102515.94;4967774;28;98778;-70
2022/11/26 11:19:29;;;;;;;22.05;6.43;;;;;;;13.77;60.71;102518.69;4969892;28;98111;-71
2022/11/26 11:21:55;;;;;;;17.88;4.70;;;;;;;13.76;60.05;102514.28;4959499;28;98692;-72
2022/11/26 11:24:25;;;;;;;18.75;4.55;;;;;;;13.44;59.96;102528.22;4962605;28;97083;-71